EDDR 191320Z 08003KT 350V150 9999 SCT028 18/12 Q1014 NOSIG EDDR 191250Z VRB02KT 9999 SCT027 18/12 Q1014 NOSIG EDDR 191220Z 32005KT 280V030 9999 BKN027 18/12 Q1014 NOSIG EDDR 191150Z VRB02KT 9999 BKN026 19/12 Q1014 NOSIG EDDR 191120Z 18004KT 100V250 9999 BKN026 18/12 Q1014 NOSIG EDDR 191050Z 12004KT 090V170 9999 BKN026 18/12 Q1014 NOSIG EDDR 191020Z 07004KT 340V110 9999 SCT023 18/12 Q1014 NOSIG EDDR 190950Z 08005KT 030V140 9999 FEW021 17/12 Q1014 NOSIG EDDR 190920Z 11008KT 050V140 9999 FEW017 17/12 Q1014 NOSIG EDDR 190850Z 09006KT 050V130 9999 FEW017 15/11 Q1014 NOSIG EDDR 190820Z 05009KT CAVOK 14/11 Q1014 NOSIG EDDR 190750Z 06008KT 020V090 CAVOK 13/10 Q1014 NOSIG EDDR 190720Z 04008KT 9999 FEW008 12/10 Q1013 NOSIG EDDR 190650Z 04009KT 9999 FEW008 12/10 Q1013 NOSIG EDDR 190620Z 04009KT 010V070 9999 FEW008 11/10 Q1013 NOSIG EDDR 190550Z 05008KT 9999 FEW008 11/09 Q1013 NOSIG EDDR 190520Z 04009KT CAVOK 11/09 Q1013 NOSIG EDDR 190450Z 04009KT CAVOK 11/10 Q1013 NOSIG EDDR 190420Z 04008KT CAVOK 11/10 Q1013 NOSIG EDDR 190350Z 04010KT CAVOK 11/10 Q1013 NOSIG EDDR 190320Z 04010KT CAVOK 11/10 Q1012 EDDR 190250Z 04009KT CAVOK 12/10 Q1013 EDDR 190220Z 04009KT CAVOK 12/10 Q1013 EDDR 190150Z 04008KT CAVOK 12/11 Q1013 EDDR 190120Z 04009KT CAVOK 12/11 Q1013 EDDR 190050Z 04008KT CAVOK 12/11 Q1013 EDDR 190020Z 04008KT CAVOK 12/11 Q1014 EDDR 182350Z 05008KT CAVOK 13/11 Q1014 EDDR 182320Z 06008KT CAVOK 14/11 Q1014 EDDR 182250Z 06008KT CAVOK 14/11 Q1014 EDDR 182220Z 05007KT CAVOK 13/11 Q1014 EDDR 182150Z 04006KT CAVOK 13/11 Q1014 EDDR 182120Z 05006KT CAVOK 13/11 Q1014 EDDR 182050Z 06006KT CAVOK 14/11 Q1014 NOSIG EDDR 182020Z 06007KT CAVOK 14/11 Q1015 NOSIG EDDR 181950Z 06007KT CAVOK 14/11 Q1015 NOSIG EDDR 181920Z 06006KT CAVOK 13/10 Q1015 NOSIG EDDR 181850Z 07005KT CAVOK 14/10 Q1015 NOSIG EDDR 181820Z 07004KT CAVOK 15/11 Q1015 NOSIG EDDR 181750Z 08003KT CAVOK 16/11 Q1014 NOSIG EDDR 181720Z 06005KT CAVOK 17/11 Q1014 NOSIG EDDR 181650Z 08004KT CAVOK 19/10 Q1014 NOSIG EDDR 181620Z 09004KT CAVOK 20/10 Q1014 NOSIG EDDR 181550Z 11007KT CAVOK 21/09 Q1015 NOSIG EDDR 181520Z 11007KT 080V140 CAVOK 22/09 Q1015 NOSIG EDDR 181450Z 14007KT 100V170 CAVOK 21/09 Q1015 NOSIG EDDR 181420Z 11004KT 080V140 CAVOK 20/10 Q1015 NOSIG EDDR 181350Z 10005KT 060V130 CAVOK 21/09 Q1015 NOSIG EDDR 181320Z 08006KT 020V110 CAVOK 21/10 Q1016 NOSIG EDDR 181250Z AUTO 10007KT 040V130 //// R09/P2000N // ///////// 21/10 Q1016 NOSIG EDDR 181220Z 10007KT 070V140 9999 FEW045 21/10 Q1016 NOSIG EDDR 181150Z 10008KT 040V150 9999 FEW040 21/10 Q1016 NOSIG EDDR 181120Z 09008KT 040V140 9999 FEW035 20/11 Q1016 NOSIG EDDR 181050Z 10006KT 070V140 9999 FEW028 20/12 Q1016 NOSIG EDDR 181020Z 10008KT 070V130 9999 FEW028 19/12 Q1017 NOSIG EDDR 180950Z 08008KT 050V110 CAVOK 18/11 Q1017 NOSIG EDDR 180920Z 09009KT 050V130 CAVOK 18/12 Q1017 NOSIG EDDR 180850Z 09008KT 030V110 CAVOK 18/12 Q1017 NOSIG EDDR 180820Z 07008KT CAVOK 16/12 Q1017 NOSIG EDDR 180750Z 07007KT CAVOK 15/12 Q1017 NOSIG EDDR 180720Z 06004KT 020V090 CAVOK 14/11 Q1017 NOSIG EDDR 180650Z 05006KT CAVOK 13/11 Q1016 NOSIG EDDR 180620Z 06005KT CAVOK 11/10 Q1016 NOSIG EDDR 180550Z 07004KT CAVOK 10/09 Q1016 NOSIG EDDR 180520Z 07003KT 010V100 CAVOK 09/09 Q1016 NOSIG EDDR 180450Z 07003KT 040V100 CAVOK 09/09 Q1016 NOSIG EDDR 180420Z 06004KT CAVOK 09/09 Q1016 NOSIG EDDR 180350Z 06004KT CAVOK 10/10 Q1016 NOSIG EDDR 180320Z 07004KT CAVOK 11/10 Q1016 EDDR 180250Z 06004KT CAVOK 11/10 Q1016 EDDR 180220Z 08005KT CAVOK 12/10 Q1016 EDDR 180150Z 04007KT CAVOK 11/10 Q1016

METAR Messwerte

Zurück zur Übersicht

Ort
m ü. NN
Zeit Temperatur Taupunkt Rel.
Luftfeuchte
Luftdruck:
Altimeter
NN
Station
Wind in Beaufort
(Knoten)
Sichtweite
(Meter)
Wolken
(Meter über Grund)
Wettererscheinung
Saarbrücken/Ensheim
320
So 19.09. 15:20181268 %1014
1014
976
O 2 (3)
N - SSO
>= 10000Wolkig (850) 
Saarbrücken/Ensheim
320
So 19.09. 14:50181268 %1014
1014
976
Uml 1 (2)>= 10000Wolkig (820) 
Saarbrücken/Ensheim
320
So 19.09. 14:20181268 %1014
1014
976
NW 2 (5)
W - NNO
>= 10000Stark bewölkt (820) 
Saarbrücken/Ensheim
320
So 19.09. 13:50191264 %1014
1013
976
Uml 1 (2)>= 10000Stark bewölkt (790) 
Saarbrücken/Ensheim
320
So 19.09. 13:20181268 %1014
1014
976
S 2 (4)
O - WSW
>= 10000Stark bewölkt (790) 
Saarbrücken/Ensheim
320
So 19.09. 12:50181268 %1014
1014
976
OSO 2 (4)
O - S
>= 10000Stark bewölkt (790) 
Saarbrücken/Ensheim
320
So 19.09. 12:20181268 %1014
1014
976
ONO 2 (4)
NNW - OSO
>= 10000Wolkig (700) 
Saarbrücken/Ensheim
320
So 19.09. 11:50171272 %1014
1014
976
O 2 (5)
NNO - SO
>= 10000Leicht bewölkt (640) 
Saarbrücken/Ensheim
320
So 19.09. 11:20171272 %1014
1014
976
OSO 3 (8)
NO - SO
>= 10000Leicht bewölkt (520) 
Saarbrücken/Ensheim
320
So 19.09. 10:50151177 %1014
1014
976
O 2 (6)
NO - SO
>= 10000Leicht bewölkt (520) 
Saarbrücken/Ensheim
320
So 19.09. 10:20141182 %1014
1014
976
NO 3 (9)>= 10000Nicht signifikant 
Saarbrücken/Ensheim
320
So 19.09. 09:50131082 %1014
1014
976
ONO 3 (8)
NNO - O
>= 10000Nicht signifikant 
Saarbrücken/Ensheim
320
So 19.09. 09:20121088 %1013
1013
975
NO 3 (8)>= 10000Leicht bewölkt (240) 
Saarbrücken/Ensheim
320
So 19.09. 08:50121088 %1013
1013
975
NO 3 (9)>= 10000Leicht bewölkt (240) 
Saarbrücken/Ensheim
320
So 19.09. 08:20111094 %1013
1014
975
NO 3 (9)
N - ONO
>= 10000Leicht bewölkt (240) 
Saarbrücken/Ensheim
320
So 19.09. 07:5011987 %1013
1014
975
NO 3 (8)>= 10000Leicht bewölkt (240) 
Saarbrücken/Ensheim
320
So 19.09. 07:2011987 %1013
1014
975
NO 3 (9)>= 10000Nicht signifikant 
Saarbrücken/Ensheim
320
So 19.09. 06:50111094 %1013
1014
975
NO 3 (9)>= 10000Nicht signifikant 
Saarbrücken/Ensheim
320
So 19.09. 06:20111094 %1013
1014
975
NO 3 (8)>= 10000Nicht signifikant 
Saarbrücken/Ensheim
320
So 19.09. 05:50111094 %1013
1014
975
NO 3 (10)>= 10000Nicht signifikant 
Saarbrücken/Ensheim
320
So 19.09. 05:20111094 %1012
1013
974
NO 3 (10)>= 10000Nicht signifikant 
Saarbrücken/Ensheim
320
So 19.09. 04:50121088 %1013
1013
975
NO 3 (9)>= 10000Nicht signifikant 
Saarbrücken/Ensheim
320
So 19.09. 04:20121088 %1013
1013
975
NO 3 (9)>= 10000Nicht signifikant 
Saarbrücken/Ensheim
320
So 19.09. 03:50121194 %1013
1013
975
NO 3 (8)>= 10000Nicht signifikant 
Saarbrücken/Ensheim
320
So 19.09. 03:20121194 %1013
1013
975
NO 3 (9)>= 10000Nicht signifikant 
Saarbrücken/Ensheim
320
So 19.09. 02:50121194 %1013
1013
975
NO 3 (8)>= 10000Nicht signifikant 
Saarbrücken/Ensheim
320
So 19.09. 02:20121194 %1014
1014
976
NO 3 (8)>= 10000Nicht signifikant 
Saarbrücken/Ensheim
320
So 19.09. 01:50131188 %1014
1014
976
NO 3 (8)>= 10000Nicht signifikant 
Saarbrücken/Ensheim
320
So 19.09. 01:20141182 %1014
1014
976
ONO 3 (8)>= 10000Nicht signifikant 
Saarbrücken/Ensheim
320
So 19.09. 00:50141182 %1014
1014
976
ONO 3 (8)>= 10000Nicht signifikant 
Saarbrücken/Ensheim
320
So 19.09. 00:20131188 %1014
1014
976
NO 3 (7)>= 10000Nicht signifikant 
Saarbrücken/Ensheim
320
Sa 18.09. 23:50131188 %1014
1014
976
NO 2 (6)>= 10000Nicht signifikant 
Saarbrücken/Ensheim
320
Sa 18.09. 23:20131188 %1014
1014
976
NO 2 (6)>= 10000Nicht signifikant 
Saarbrücken/Ensheim
320
Sa 18.09. 22:50141182 %1014
1014
976
ONO 2 (6)>= 10000Nicht signifikant 
Saarbrücken/Ensheim
320
Sa 18.09. 22:20141182 %1015
1015
977
ONO 3 (7)>= 10000Nicht signifikant 
Saarbrücken/Ensheim
320
Sa 18.09. 21:50141182 %1015
1015
977
ONO 3 (7)>= 10000Nicht signifikant 
Saarbrücken/Ensheim
320
Sa 18.09. 21:20131082 %1015
1015
977
ONO 2 (6)>= 10000Nicht signifikant 
Saarbrücken/Ensheim
320
Sa 18.09. 20:50141077 %1015
1015
977
ONO 2 (5)>= 10000Nicht signifikant 
Saarbrücken/Ensheim
320
Sa 18.09. 20:20151177 %1015
1015
977
ONO 2 (4)>= 10000Nicht signifikant 
Saarbrücken/Ensheim
320
Sa 18.09. 19:50161172 %1014
1014
976
O 2 (3)>= 10000Nicht signifikant 
Saarbrücken/Ensheim
320
Sa 18.09. 19:20171168 %1014
1014
976
ONO 2 (5)>= 10000Nicht signifikant 
Saarbrücken/Ensheim
320
Sa 18.09. 18:50191056 %1014
1013
976
O 2 (4)>= 10000Nicht signifikant 
Saarbrücken/Ensheim
320
Sa 18.09. 18:20201053 %1014
1013
976
O 2 (4)>= 10000Nicht signifikant 
Saarbrücken/Ensheim
320
Sa 18.09. 17:5021946 %1015
1014
977
OSO 3 (7)>= 10000Nicht signifikant 
Saarbrücken/Ensheim
320
Sa 18.09. 17:2022943 %1015
1014
977
OSO 3 (7)
O - SO
>= 10000Nicht signifikant 
Saarbrücken/Ensheim
320
Sa 18.09. 16:5021946 %1015
1014
977
SO 3 (7)
O - S
>= 10000Nicht signifikant 
Saarbrücken/Ensheim
320
Sa 18.09. 16:20201053 %1015
1014
977
OSO 2 (4)
O - SO
>= 10000Nicht signifikant 
Saarbrücken/Ensheim
320
Sa 18.09. 15:5021946 %1015
1014
977
O 2 (5)
ONO - SO
>= 10000Nicht signifikant 
Saarbrücken/Ensheim
320
Sa 18.09. 15:20211049 %1016
1015
978
O 2 (6)
NNO - OSO
>= 10000Nicht signifikant 
Saarbrücken/Ensheim
320
Sa 18.09. 14:50211049 %1016
1015
978
O 3 (7)
NO - SO
   
Saarbrücken/Ensheim
320
Sa 18.09. 14:20211049 %1016
1015
978
O 3 (7)
ONO - SO
>= 10000Leicht bewölkt (1400) 
Saarbrücken/Ensheim
320
Sa 18.09. 13:50211049 %1016
1015
978
O 3 (8)
NO - SSO
>= 10000Leicht bewölkt (1200) 
Saarbrücken/Ensheim
320
Sa 18.09. 13:20201156 %1016
1015
978
O 3 (8)
NO - SO
>= 10000Leicht bewölkt (1100) 
Saarbrücken/Ensheim
320
Sa 18.09. 12:50201260 %1016
1015
978
O 2 (6)
ONO - SO
>= 10000Leicht bewölkt (850) 
Saarbrücken/Ensheim
320
Sa 18.09. 12:20191264 %1017
1017
979
O 3 (8)
ONO - SO
>= 10000Leicht bewölkt (850) 
Saarbrücken/Ensheim
320
Sa 18.09. 11:50181164 %1017
1017
979
O 3 (8)
NO - OSO
>= 10000Nicht signifikant 
Saarbrücken/Ensheim
320
Sa 18.09. 11:20181268 %1017
1017
979
O 3 (9)
NO - SO
>= 10000Nicht signifikant 
Saarbrücken/Ensheim
320
Sa 18.09. 10:50181268 %1017
1017
979
O 3 (8)
NNO - OSO
>= 10000Nicht signifikant 
Saarbrücken/Ensheim
320
Sa 18.09. 10:20161277 %1017
1017
979
ONO 3 (8)>= 10000Nicht signifikant 
Saarbrücken/Ensheim
320
Sa 18.09. 09:50151282 %1017
1017
979
ONO 3 (7)>= 10000Nicht signifikant 
Saarbrücken/Ensheim
320
Sa 18.09. 09:20141182 %1017
1017
979
ONO 2 (4)
NNO - O
>= 10000Nicht signifikant 
Saarbrücken/Ensheim
320
Sa 18.09. 08:50131188 %1016
1016
978
NO 2 (6)>= 10000Nicht signifikant 
Saarbrücken/Ensheim
320
Sa 18.09. 08:20111094 %1016
1017
978
ONO 2 (5)>= 10000Nicht signifikant 
Saarbrücken/Ensheim
320
Sa 18.09. 07:5010993 %1016
1017
978
ONO 2 (4)>= 10000Nicht signifikant 
Saarbrücken/Ensheim
320
Sa 18.09. 07:2099100 %1016
1017
978
ONO 2 (3)
N - O
>= 10000Nicht signifikant 
Saarbrücken/Ensheim
320
Sa 18.09. 06:5099100 %1016
1017
978
ONO 2 (3)
NO - O
>= 10000Nicht signifikant 
Saarbrücken/Ensheim
320
Sa 18.09. 06:2099100 %1016
1017
978
ONO 2 (4)>= 10000Nicht signifikant 
Saarbrücken/Ensheim
320
Sa 18.09. 05:501010100 %1016
1017
978
ONO 2 (4)>= 10000Nicht signifikant 
Saarbrücken/Ensheim
320
Sa 18.09. 05:20111094 %1016
1017
978
ONO 2 (4)>= 10000Nicht signifikant 
Saarbrücken/Ensheim
320
Sa 18.09. 04:50111094 %1016
1017
978
ONO 2 (4)>= 10000Nicht signifikant 
Saarbrücken/Ensheim
320
Sa 18.09. 04:20121088 %1016
1016
978
O 2 (5)>= 10000Nicht signifikant 
Saarbrücken/Ensheim
320
Sa 18.09. 03:50111094 %1016
1017
978
NO 3 (7)>= 10000Nicht signifikant 

Altimeter: Einstellung am Altimeter (Höhenmesser), die Höhe 0 muss auf diesen Luftdruckwert zeigen, damit das Gerät die Stationshöhe richtig anzeigt.

NN: Luftdruck reduziert auf "Normal Null", auf Meereshöhe, dieser von der Temperatur abhängige Wert wird bisweilen unkorrekt einfach als "Luftdruck" bezeichnet. Eigentlich nur eine fiktive Größe, die es erlaubt, Stationen auf unterschiedlichen Höhen miteinander zu vergleichen.

Station: Realer Luftdruck an der Station.